Time,TemperatureF,DewpointF,PressureIn,WindDirection,WindDirectionDegrees,WindSpeedMPH,WindSpeedGustMPH,Humidity,HourlyPrecipIn,Conditions,Clouds,dailyrainin,SolarRadiationWatts/m^2,SoftwareType,DateUTC
2013-02-07 00:00:00,32.2,27.6,30.24,East,82,0.0,3.0,83,0.00,,,0.00,0,HR-IXPWINDi_r2_v1.2.,2013-02-07 05:00:00,
2013-02-07 00:05:00,31.5,27.5,30.24,East,82,0.0,2.0,85,0.00,,,0.00,0,HR-IXPWINDi_r2_v1.2.,2013-02-07 05:05:00,
2013-02-07 00:10:00,31.5,28.1,30.24,East,82,0.0,2.0,87,0.00,,,0.00,0,HR-IXPWINDi_r2_v1.2.,2013-02-07 05:10:00,
2013-02-07 00:15:00,31.7,28.0,30.24,East,82,2.0,2.0,86,0.00,,,0.00,0,HR-IXPWINDi_r2_v1.2.,2013-02-07 05:15:00,
2013-02-07 00:20:00,31.6,27.6,30.24,East,82,0.0,2.0,85,0.00,,,0.00,0,HR-IXPWINDi_r2_v1.2.,2013-02-07 05:20:00,
2013-02-07 00:26:00,31.0,27.6,30.25,East,82,0.0,2.0,87,0.00,,,0.00,0,HR-IXPWINDi_r2_v1.2.,2013-02-07 05:26:00,
2013-02-07 00:31:00,31.1,27.7,30.25,East,82,0.0,1.0,87,0.00,,,0.00,0,HR-IXPWINDi_r2_v1.2.,2013-02-07 05:31:00,
2013-02-07 00:36:00,31.4,28.2,30.25,East,82,0.0,2.0,88,0.00,,,0.00,0,HR-IXPWINDi_r2_v1.2.,2013-02-07 05:36:00,
2013-02-07 00:41:00,31.4,28.0,30.25,East,82,0.0,2.0,87,0.00,,,0.00,0,HR-IXPWINDi_r2_v1.2.,2013-02-07 05:41:00,
2013-02-07 00:47:00,31.4,28.0,30.24,East,82,0.0,1.0,87,0.00,,,0.00,0,HR-IXPWINDi_r2_v1.2.,2013-02-07 05:47:00,
2013-02-07 00:52:00,31.0,27.6,30.25,East,82,0.0,1.0,87,0.00,,,0.00,0,HR-IXPWINDi_r2_v1.2.,2013-02-07 05:52:00,
2013-02-07 00:57:00,31.0,27.6,30.24,ESE,103,0.0,4.0,87,0.00,,,0.00,0,HR-IXPWINDi_r2_v1.2.,2013-02-07 05:57:00,
2013-02-07 01:02:00,30.7,27.6,30.24,ESE,103,0.0,4.0,88,0.00,,,0.00,0,HR-IXPWINDi_r2_v1.2.,2013-02-07 06:02:00,
2013-02-07 01:07:00,30.7,27.6,30.24,ESE,103,0.0,2.0,88,0.00,,,0.00,0,HR-IXPWINDi_r2_v1.2.,2013-02-07 06:07:00,
2013-02-07 01:13:00,31.0,27.8,30.23,East,91,0.0,2.0,88,0.00,,,0.00,0,HR-IXPWINDi_r2_v1.2.,2013-02-07 06:13:00,
2013-02-07 01:18:00,31.3,28.1,30.24,East,90,0.0,2.0,88,0.00,,,0.00,0,HR-IXPWINDi_r2_v1.2.,2013-02-07 06:18:00,
2013-02-07 01:23:00,31.4,28.2,30.23,East,90,0.0,2.0,88,0.00,,,0.00,0,HR-IXPWINDi_r2_v1.2.,2013-02-07 06:23:00,
2013-02-07 01:28:00,31.0,27.6,30.23,East,90,0.0,2.0,87,0.00,,,0.00,0,HR-IXPWINDi_r2_v1.2.,2013-02-07 06:28:00,
2013-02-07 01:33:00,30.9,27.7,30.24,East,83,0.0,4.0,88,0.00,,,0.00,0,HR-IXPWINDi_r2_v1.2.,2013-02-07 06:33:00,
2013-02-07 01:39:00,31.1,27.9,30.24,East,80,0.0,4.0,88,0.00,,,0.00,0,HR-IXPWINDi_r2_v1.2.,2013-02-07 06:39:00,
2013-02-07 01:44:00,30.7,27.6,30.24,SE,134,4.0,5.0,88,0.00,,,0.00,0,HR-IXPWINDi_r2_v1.2.,2013-02-07 06:44:00,
2013-02-07 01:49:00,30.8,27.6,30.24,SE,134,0.0,5.0,88,0.00,,,0.00,0,HR-IXPWINDi_r2_v1.2.,2013-02-07 06:49:00,
2013-02-07 01:54:00,30.9,27.7,30.24,SE,134,0.0,5.0,88,0.00,,,0.00,0,HR-IXPWINDi_r2_v1.2.,2013-02-07 06:54:00,
2013-02-07 01:59:00,31.2,28.0,30.24,SE,134,0.0,4.0,88,0.00,,,0.00,0,HR-IXPWINDi_r2_v1.2.,2013-02-07 06:59:00,
2013-02-07 02:04:00,30.8,27.6,30.24,SE,134,1.0,1.0,88,0.00,,,0.00,0,HR-IXPWINDi_r2_v1.2.,2013-02-07 07:04:00,
2013-02-07 02:10:00,30.8,27.6,30.24,SE,134,0.0,2.0,88,0.00,,,0.00,0,HR-IXPWINDi_r2_v1.2.,2013-02-07 07:10:00,
2013-02-07 02:15:00,31.1,27.9,30.24,SE,134,0.0,2.0,88,0.00,,,0.00,0,HR-IXPWINDi_r2_v1.2.,2013-02-07 07:15:00,
2013-02-07 02:20:00,31.1,27.9,30.23,ENE,57,0.0,3.0,88,0.00,,,0.00,0,HR-IXPWINDi_r2_v1.2.,2013-02-07 07:20:00,
2013-02-07 02:25:00,30.8,27.6,30.24,ESE,115,0.0,4.0,88,0.00,,,0.00,0,HR-IXPWINDi_r2_v1.2.,2013-02-07 07:25:00,
2013-02-07 02:30:00,30.8,27.6,30.24,ESE,115,0.0,4.0,88,0.00,,,0.00,0,HR-IXPWINDi_r2_v1.2.,2013-02-07 07:30:00,
2013-02-07 02:35:00,31.1,27.9,30.24,ESE,115,0.0,4.0,88,0.00,,,0.00,0,HR-IXPWINDi_r2_v1.2.,2013-02-07 07:35:00,
2013-02-07 02:41:00,30.8,27.6,30.23,NE,45,0.0,3.0,88,0.00,,,0.00,0,HR-IXPWINDi_r2_v1.2.,2013-02-07 07:41:00,
2013-02-07 02:46:00,31.0,27.8,30.23,NE,45,1.0,3.0,88,0.00,,,0.00,0,HR-IXPWINDi_r2_v1.2.,2013-02-07 07:46:00,
2013-02-07 02:51:00,31.1,27.9,30.23,NE,45,2.0,3.0,88,0.00,,,0.00,0,HR-IXPWINDi_r2_v1.2.,2013-02-07 07:51:00,
2013-02-07 02:56:00,31.1,27.9,30.24,NE,45,1.0,3.0,88,0.00,,,0.00,0,HR-IXPWINDi_r2_v1.2.,2013-02-07 07:56:00,
2013-02-07 03:01:00,31.1,27.9,30.23,ESE,117,0.0,4.0,88,0.00,,,0.00,0,HR-IXPWINDi_r2_v1.2.,2013-02-07 08:01:00,
2013-02-07 03:07:00,31.1,27.9,30.23,ESE,117,4.0,4.0,88,0.00,,,0.00,0,HR-IXPWINDi_r2_v1.2.,2013-02-07 08:07:00,
2013-02-07 03:12:00,31.2,28.0,30.24,ESE,117,1.0,4.0,88,0.00,,,0.00,0,HR-IXPWINDi_r2_v1.2.,2013-02-07 08:12:00,
2013-02-07 03:17:00,31.0,27.8,30.24,ESE,117,1.0,4.0,88,0.00,,,0.00,0,HR-IXPWINDi_r2_v1.2.,2013-02-07 08:17:00,
2013-02-07 03:22:00,31.2,28.0,30.24,SE,130,0.0,5.0,88,0.00,,,0.00,0,HR-IXPWINDi_r2_v1.2.,2013-02-07 08:22:00,
2013-02-07 03:27:00,31.1,27.9,30.24,SE,130,0.0,5.0,88,0.00,,,0.00,0,HR-IXPWINDi_r2_v1.2.,2013-02-07 08:27:00,
2013-02-07 03:32:00,31.4,28.2,30.24,ENE,75,1.0,4.0,88,0.00,,,0.00,0,HR-IXPWINDi_r2_v1.2.,2013-02-07 08:32:00,
2013-02-07 03:37:00,31.2,28.0,30.24,ESE,105,4.0,4.0,88,0.00,,,0.00,0,HR-IXPWINDi_r2_v1.2.,2013-02-07 08:37:00,
2013-02-07 03:43:00,31.1,27.9,30.24,NW,317,4.0,4.0,88,0.00,,,0.00,0,HR-IXPWINDi_r2_v1.2.,2013-02-07 08:43:00,
2013-02-07 03:48:00,31.2,28.0,30.25,NW,320,5.0,7.0,88,0.00,,,0.00,0,HR-IXPWINDi_r2_v1.2.,2013-02-07 08:48:00,
2013-02-07 03:53:00,31.2,28.0,30.25,SE,142,0.0,7.0,88,0.00,,,0.00,0,HR-IXPWINDi_r2_v1.2.,2013-02-07 08:53:00,
2013-02-07 03:58:00,31.5,28.3,30.25,SE,142,0.0,7.0,88,0.00,,,0.00,0,HR-IXPWINDi_r2_v1.2.,2013-02-07 08:58:00,
2013-02-07 04:03:00,31.6,28.4,30.26,SE,142,0.0,4.0,88,0.00,,,0.00,0,HR-IXPWINDi_r2_v1.2.,2013-02-07 09:03:00,
2013-02-07 04:09:00,31.7,28.3,30.27,North,5,3.0,4.0,87,0.00,,,0.00,0,HR-IXPWINDi_r2_v1.2.,2013-02-07 09:09:00,
2013-02-07 04:14:00,31.7,28.3,30.27,NE,50,0.0,4.0,87,0.00,,,0.00,0,HR-IXPWINDi_r2_v1.2.,2013-02-07 09:14:00,
2013-02-07 04:19:00,31.9,28.5,30.27,NNW,337,2.0,4.0,87,0.00,,,0.00,0,HR-IXPWINDi_r2_v1.2.,2013-02-07 09:19:00,
2013-02-07 04:24:00,31.5,28.1,30.28,ESE,123,0.0,5.0,87,0.00,,,0.00,0,HR-IXPWINDi_r2_v1.2.,2013-02-07 09:24:00,
2013-02-07 04:30:00,31.6,28.4,30.28,East,90,0.0,5.0,88,0.00,,,0.00,0,HR-IXPWINDi_r2_v1.2.,2013-02-07 09:30:00,
2013-02-07 04:35:00,31.9,28.7,30.28,East,90,2.0,4.0,88,0.00,,,0.00,0,HR-IXPWINDi_r2_v1.2.,2013-02-07 09:35:00,
2013-02-07 04:40:00,31.7,28.3,30.28,East,90,0.0,2.0,87,0.00,,,0.00,0,HR-IXPWINDi_r2_v1.2.,2013-02-07 09:40:00,
2013-02-07 04:45:00,31.8,28.4,30.28,East,90,2.0,2.0,87,0.00,,,0.00,0,HR-IXPWINDi_r2_v1.2.,2013-02-07 09:45:00,
2013-02-07 04:50:00,32.0,28.5,30.28,East,90,0.0,4.0,87,0.00,,,0.00,0,HR-IXPWINDi_r2_v1.2.,2013-02-07 09:50:00,
2013-02-07 04:55:00,31.8,28.4,30.28,ESE,107,0.0,5.0,87,0.00,,,0.00,0,HR-IXPWINDi_r2_v1.2.,2013-02-07 09:55:00,
2013-02-07 05:00:00,32.2,28.7,30.28,ESE,107,0.0,5.0,87,0.00,,,0.00,0,HR-IXPWINDi_r2_v1.2.,2013-02-07 10:00:00,
2013-02-07 05:06:00,32.6,29.1,30.28,ESE,107,0.0,2.0,87,0.00,,,0.00,0,HR-IXPWINDi_r2_v1.2.,2013-02-07 10:06:00,
2013-02-07 05:11:00,32.3,28.6,30.28,ESE,113,0.0,5.0,86,0.00,,,0.00,0,HR-IXPWINDi_r2_v1.2.,2013-02-07 10:11:00,
2013-02-07 05:16:00,32.4,28.9,30.28,North,355,3.0,5.0,87,0.00,,,0.00,0,HR-IXPWINDi_r2_v1.2.,2013-02-07 10:16:00,
2013-02-07 05:21:00,32.6,28.9,30.28,ESE,117,0.0,4.0,86,0.00,,,0.00,0,HR-IXPWINDi_r2_v1.2.,2013-02-07 10:21:00,
2013-02-07 05:26:00,32.6,28.9,30.27,NE,43,3.0,4.0,86,0.00,,,0.00,0,HR-IXPWINDi_r2_v1.2.,2013-02-07 10:26:00,
2013-02-07 05:32:00,33.0,29.2,30.27,North,351,2.0,3.0,86,0.00,,,0.00,0,HR-IXPWINDi_r2_v1.2.,2013-02-07 10:32:00,
2013-02-07 05:37:00,33.0,29.0,30.27,WNW,286,0.0,3.0,85,0.00,,,0.00,0,HR-IXPWINDi_r2_v1.2.,2013-02-07 10:37:00,
2013-02-07 05:42:00,33.1,29.3,30.27,West,281,2.0,3.0,86,0.00,,,0.00,0,HR-IXPWINDi_r2_v1.2.,2013-02-07 10:42:00,
2013-02-07 05:47:00,33.0,29.2,30.27,WSW,248,0.0,2.0,86,0.00,,,0.00,0,HR-IXPWINDi_r2_v1.2.,2013-02-07 10:47:00,
2013-02-07 05:53:00,32.9,29.2,30.27,WSW,252,0.0,2.0,86,0.00,,,0.00,0,HR-IXPWINDi_r2_v1.2.,2013-02-07 10:53:00,
2013-02-07 05:58:00,33.1,31.0,30.27,NNW,334,1.0,3.0,92,0.00,,,0.00,0,HR-IXPWINDi_r2_v1.2.,2013-02-07 10:58:00,
2013-02-07 06:03:00,33.3,29.5,30.26,NNW,334,0.0,3.0,86,0.00,,,0.00,0,HR-IXPWINDi_r2_v1.2.,2013-02-07 11:03:00,
2013-02-07 06:08:00,33.1,29.3,30.26,ESE,113,0.0,4.0,86,0.00,,,0.00,0,HR-IXPWINDi_r2_v1.2.,2013-02-07 11:08:00,
2013-02-07 06:13:00,33.1,29.3,30.26,ESE,113,0.0,4.0,86,0.00,,,0.00,0,HR-IXPWINDi_r2_v1.2.,2013-02-07 11:13:00,
2013-02-07 06:19:00,33.3,29.5,30.26,ESE,113,0.0,2.0,86,0.00,,,0.00,0,HR-IXPWINDi_r2_v1.2.,2013-02-07 11:19:00,
2013-02-07 06:24:00,33.3,29.8,30.25,ESE,113,0.0,2.0,87,0.00,,,0.00,0,HR-IXPWINDi_r2_v1.2.,2013-02-07 11:24:00,
2013-02-07 06:29:00,33.4,29.9,30.25,ESE,113,0.0,1.0,87,0.00,,,0.00,0,HR-IXPWINDi_r2_v1.2.,2013-02-07 11:29:00,
2013-02-07 06:34:00,33.4,29.9,30.25,ESE,113,0.0,1.0,87,0.00,,,0.00,0,HR-IXPWINDi_r2_v1.2.,2013-02-07 11:34:00,
2013-02-07 06:39:00,33.5,30.0,30.25,ESE,113,0.0,1.0,87,0.00,,,0.00,0,HR-IXPWINDi_r2_v1.2.,2013-02-07 11:39:00,
2013-02-07 06:45:00,33.7,30.2,30.26,ESE,113,0.0,1.0,87,0.00,,,0.00,0,HR-IXPWINDi_r2_v1.2.,2013-02-07 11:45:00,
2013-02-07 06:50:00,33.6,30.1,30.26,ESE,113,0.0,2.0,87,0.00,,,0.00,0,HR-IXPWINDi_r2_v1.2.,2013-02-07 11:50:00,
2013-02-07 06:55:00,33.8,30.0,30.26,ESE,113,2.0,4.0,86,0.00,,,0.00,0,HR-IXPWINDi_r2_v1.2.,2013-02-07 11:55:00,
2013-02-07 07:00:00,34.0,29.9,30.26,NW,323,0.0,5.0,85,0.00,,,0.00,0,HR-IXPWINDi_r2_v1.2.,2013-02-07 12:00:00,
2013-02-07 07:05:00,33.9,29.8,30.27,NW,317,3.0,5.0,85,0.00,,,0.00,0,HR-IXPWINDi_r2_v1.2.,2013-02-07 12:05:00,
2013-02-07 07:11:00,34.1,30.0,30.26,NNW,333,3.0,4.0,85,0.00,,,0.00,0,HR-IXPWINDi_r2_v1.2.,2013-02-07 12:11:00,
2013-02-07 07:16:00,34.4,30.0,30.26,ENE,74,0.0,4.0,84,0.00,,,0.00,0,HR-IXPWINDi_r2_v1.2.,2013-02-07 12:16:00,
2013-02-07 07:21:00,34.3,29.9,30.26,ESE,123,2.0,6.0,84,0.00,,,0.00,0,HR-IXPWINDi_r2_v1.2.,2013-02-07 12:21:00,
2013-02-07 07:26:00,34.3,30.2,30.26,ESE,123,2.0,6.0,85,0.00,,,0.00,0,HR-IXPWINDi_r2_v1.2.,2013-02-07 12:26:00,
2013-02-07 07:31:00,34.2,30.4,30.26,ESE,123,0.0,4.0,86,0.00,,,0.00,0,HR-IXPWINDi_r2_v1.2.,2013-02-07 12:31:00,
2013-02-07 07:37:00,34.3,30.5,30.27,ESE,123,0.0,1.0,86,0.00,,,0.00,0,HR-IXPWINDi_r2_v1.2.,2013-02-07 12:37:00,
2013-02-07 07:42:00,34.5,30.4,30.27,ESE,123,0.0,4.0,85,0.00,,,0.00,5,HR-IXPWINDi_r2_v1.2.,2013-02-07 12:42:00,
2013-02-07 07:47:00,34.6,30.5,30.28,ESE,123,2.0,4.0,85,0.00,,,0.00,11,HR-IXPWINDi_r2_v1.2.,2013-02-07 12:47:00,
2013-02-07 07:52:00,34.7,30.3,30.27,ESE,123,0.0,4.0,84,0.00,,,0.00,12,HR-IXPWINDi_r2_v1.2.,2013-02-07 12:52:00,
2013-02-07 07:57:00,35.0,30.6,30.28,ESE,123,0.0,4.0,84,0.00,,,0.00,16,HR-IXPWINDi_r2_v1.2.,2013-02-07 12:57:00,
2013-02-07 08:02:00,35.2,30.8,30.28,ESE,123,0.0,2.0,84,0.00,,,0.00,19,HR-IXPWINDi_r2_v1.2.,2013-02-07 13:02:00,
2013-02-07 08:07:00,35.1,30.7,30.28,ESE,123,0.0,2.0,84,0.00,,,0.00,25,HR-IXPWINDi_r2_v1.2.,2013-02-07 13:07:00,
2013-02-07 08:13:00,35.3,30.9,30.28,ESE,123,0.0,1.0,84,0.00,,,0.00,28,HR-IXPWINDi_r2_v1.2.,2013-02-07 13:13:00,
2013-02-07 08:18:00,35.5,31.1,30.28,ESE,123,0.0,1.0,84,0.00,,,0.00,33,HR-IXPWINDi_r2_v1.2.,2013-02-07 13:18:00,
2013-02-07 08:23:00,36.0,31.6,30.27,ESE,123,0.0,2.0,84,0.00,,,0.00,37,HR-IXPWINDi_r2_v1.2.,2013-02-07 13:23:00,
2013-02-07 08:28:00,36.0,31.0,30.27,ESE,123,0.0,2.0,82,0.00,,,0.00,40,HR-IXPWINDi_r2_v1.2.,2013-02-07 13:28:00,
2013-02-07 08:33:00,36.4,30.8,30.27,ESE,123,0.0,2.0,80,0.00,,,0.00,40,HR-IXPWINDi_r2_v1.2.,2013-02-07 13:33:00,
2013-02-07 08:38:00,37.1,31.5,30.27,ESE,123,0.0,0.0,80,0.00,,,0.00,42,HR-IXPWINDi_r2_v1.2.,2013-02-07 13:38:00,
2013-02-07 08:44:00,37.4,31.5,30.26,ESE,123,0.0,0.0,79,0.00,,,0.00,42,HR-IXPWINDi_r2_v1.2.,2013-02-07 13:44:00,
2013-02-07 08:49:00,37.7,31.1,30.26,ESE,123,0.0,1.0,77,0.00,,,0.00,46,HR-IXPWINDi_r2_v1.2.,2013-02-07 13:49:00,
2013-02-07 08:54:00,37.7,31.1,30.26,ESE,123,1.0,2.0,77,0.00,,,0.00,54,HR-IXPWINDi_r2_v1.2.,2013-02-07 13:54:00,
2013-02-07 08:59:00,38.2,30.9,30.27,ESE,123,0.0,2.0,75,0.00,,,0.00,62,HR-IXPWINDi_r2_v1.2.,2013-02-07 13:59:00,
2013-02-07 09:05:00,38.5,30.9,30.27,ESE,123,0.0,1.0,74,0.00,,,0.00,70,HR-IXPWINDi_r2_v1.2.,2013-02-07 14:05:00,
2013-02-07 09:10:00,38.8,31.5,30.26,ESE,123,0.0,1.0,75,0.00,,,0.00,84,HR-IXPWINDi_r2_v1.2.,2013-02-07 14:10:00,
2013-02-07 09:15:00,39.1,31.5,30.26,ESE,123,0.0,0.0,74,0.00,,,0.00,91,HR-IXPWINDi_r2_v1.2.,2013-02-07 14:15:00,
2013-02-07 09:20:00,39.5,31.5,30.26,ESE,123,0.0,0.0,73,0.00,,,0.00,102,HR-IXPWINDi_r2_v1.2.,2013-02-07 14:20:00,
2013-02-07 09:25:00,40.1,31.4,30.26,ESE,123,0.0,0.0,71,0.00,,,0.00,102,HR-IXPWINDi_r2_v1.2.,2013-02-07 14:25:00,
2013-02-07 09:30:00,40.5,32.2,30.26,ESE,123,0.0,1.0,72,0.00,,,0.00,107,HR-IXPWINDi_r2_v1.2.,2013-02-07 14:30:00,
2013-02-07 09:36:00,41.0,32.3,30.26,ESE,123,0.0,1.0,71,0.00,,,0.00,116,HR-IXPWINDi_r2_v1.2.,2013-02-07 14:36:00,
2013-02-07 09:41:00,41.4,30.5,30.26,ESE,123,0.0,1.0,65,0.00,,,0.00,123,HR-IXPWINDi_r2_v1.2.,2013-02-07 14:41:00,
2013-02-07 09:46:00,41.8,30.9,30.26,ESE,123,0.0,1.0,65,0.00,,,0.00,137,HR-IXPWINDi_r2_v1.2.,2013-02-07 14:46:00,
2013-02-07 09:51:00,42.6,29.7,30.26,ESE,123,0.0,2.0,60,0.00,,,0.00,132,HR-IXPWINDi_r2_v1.2.,2013-02-07 14:51:00,
2013-02-07 09:57:00,43.1,28.9,30.26,ESE,123,0.0,2.0,57,0.00,,,0.00,116,HR-IXPWINDi_r2_v1.2.,2013-02-07 14:57:00,
2013-02-07 10:02:00,43.1,28.9,30.25,NNW,345,0.0,4.0,57,0.00,,,0.00,114,HR-IXPWINDi_r2_v1.2.,2013-02-07 15:02:00,
2013-02-07 10:07:00,43.3,29.1,30.25,NNW,345,1.0,4.0,57,0.00,,,0.00,114,HR-IXPWINDi_r2_v1.2.,2013-02-07 15:07:00,
2013-02-07 10:12:00,43.5,29.7,30.25,NNW,345,0.0,2.0,58,0.00,,,0.00,120,HR-IXPWINDi_r2_v1.2.,2013-02-07 15:12:00,
2013-02-07 10:17:00,43.7,28.6,30.25,NNW,345,0.0,2.0,55,0.00,,,0.00,141,HR-IXPWINDi_r2_v1.2.,2013-02-07 15:17:00,
2013-02-07 10:22:00,44.3,29.1,30.24,NNW,345,0.0,1.0,55,0.00,,,0.00,162,HR-IXPWINDi_r2_v1.2.,2013-02-07 15:22:00,
2013-02-07 10:28:00,44.5,29.3,30.24,ENE,72,0.0,2.0,55,0.00,,,0.00,178,HR-IXPWINDi_r2_v1.2.,2013-02-07 15:28:00,
2013-02-07 10:33:00,44.7,29.1,30.23,ENE,72,0.0,2.0,54,0.00,,,0.00,148,HR-IXPWINDi_r2_v1.2.,2013-02-07 15:33:00,
2013-02-07 10:38:00,44.7,29.1,30.23,ESE,107,2.0,2.0,54,0.00,,,0.00,146,HR-IXPWINDi_r2_v1.2.,2013-02-07 15:38:00,
2013-02-07 10:43:00,44.9,29.7,30.23,ESE,122,0.0,2.0,55,0.00,,,0.00,135,HR-IXPWINDi_r2_v1.2.,2013-02-07 15:43:00,
2013-02-07 10:49:00,45.2,29.5,30.23,SE,135,4.0,4.0,54,0.00,,,0.00,120,HR-IXPWINDi_r2_v1.2.,2013-02-07 15:49:00,
2013-02-07 10:54:00,45.3,30.1,30.22,SE,135,0.0,4.0,55,0.00,,,0.00,114,HR-IXPWINDi_r2_v1.2.,2013-02-07 15:54:00,
2013-02-07 10:59:00,45.4,30.2,30.22,SE,135,2.0,4.0,55,0.00,,,0.00,113,HR-IXPWINDi_r2_v1.2.,2013-02-07 15:59:00,
2013-02-07 11:04:00,45.6,30.3,30.22,SE,135,0.0,2.0,55,0.00,,,0.00,91,HR-IXPWINDi_r2_v1.2.,2013-02-07 16:04:00,
2013-02-07 11:10:00,45.7,30.9,30.22,SE,135,0.0,2.0,56,0.00,,,0.00,86,HR-IXPWINDi_r2_v1.2.,2013-02-07 16:10:00,
2013-02-07 11:15:00,45.8,30.5,30.22,SE,139,2.0,5.0,55,0.00,,,0.00,86,HR-IXPWINDi_r2_v1.2.,2013-02-07 16:15:00,
2013-02-07 11:20:00,45.8,31.0,30.22,SE,141,2.0,5.0,56,0.00,,,0.00,84,HR-IXPWINDi_r2_v1.2.,2013-02-07 16:20:00,
2013-02-07 11:25:00,45.9,31.1,30.22,SE,142,1.0,5.0,56,0.00,,,0.00,93,HR-IXPWINDi_r2_v1.2.,2013-02-07 16:25:00,
2013-02-07 11:31:00,45.8,31.0,30.22,SE,142,0.0,4.0,56,0.00,,,0.00,118,HR-IXPWINDi_r2_v1.2.,2013-02-07 16:31:00,
2013-02-07 11:36:00,45.8,31.0,30.21,SE,142,0.0,2.0,56,0.00,,,0.00,134,HR-IXPWINDi_r2_v1.2.,2013-02-07 16:36:00,
2013-02-07 11:41:00,45.8,30.1,30.22,SE,142,1.0,4.0,54,0.00,,,0.00,141,HR-IXPWINDi_r2_v1.2.,2013-02-07 16:41:00,
2013-02-07 11:46:00,45.8,30.1,30.21,SE,142,0.0,4.0,54,0.00,,,0.00,142,HR-IXPWINDi_r2_v1.2.,2013-02-07 16:46:00,
2013-02-07 11:51:00,46.1,30.4,30.21,NE,47,0.0,4.0,54,0.00,,,0.00,141,HR-IXPWINDi_r2_v1.2.,2013-02-07 16:51:00,
2013-02-07 11:57:00,46.3,30.5,30.20,North,355,0.0,3.0,54,0.00,,,0.00,130,HR-IXPWINDi_r2_v1.2.,2013-02-07 16:57:00,
2013-02-07 12:02:00,46.4,31.1,30.20,North,355,0.0,3.0,55,0.00,,,0.00,127,HR-IXPWINDi_r2_v1.2.,2013-02-07 17:02:00,
2013-02-07 12:07:00,46.0,30.3,30.19,West,267,0.0,3.0,54,0.00,,,0.00,141,HR-IXPWINDi_r2_v1.2.,2013-02-07 17:07:00,
2013-02-07 12:12:00,46.4,30.6,30.19,West,267,0.0,3.0,54,0.00,,,0.00,134,HR-IXPWINDi_r2_v1.2.,2013-02-07 17:12:00,
2013-02-07 12:17:00,46.2,30.9,30.19,West,267,0.0,1.0,55,0.00,,,0.00,123,HR-IXPWINDi_r2_v1.2.,2013-02-07 17:17:00,
2013-02-07 12:23:00,46.4,31.1,30.18,North,355,4.0,4.0,55,0.00,,,0.00,127,HR-IXPWINDi_r2_v1.2.,2013-02-07 17:23:00,
2013-02-07 12:28:00,46.5,31.6,30.18,NNW,340,2.0,6.0,56,0.00,,,0.00,105,HR-IXPWINDi_r2_v1.2.,2013-02-07 17:28:00,
2013-02-07 12:33:00,46.7,32.2,30.18,NW,326,1.0,6.0,57,0.00,,,0.00,91,HR-IXPWINDi_r2_v1.2.,2013-02-07 17:33:00,
2013-02-07 12:38:00,46.6,32.2,30.18,NNW,330,3.0,8.0,57,0.00,,,0.00,86,HR-IXPWINDi_r2_v1.2.,2013-02-07 17:38:00,
2013-02-07 12:43:00,46.7,33.5,30.17,North,5,2.0,8.0,60,0.00,,,0.00,74,HR-IXPWINDi_r2_v1.2.,2013-02-07 17:43:00,
2013-02-07 12:48:00,46.4,33.6,30.17,North,360,1.0,7.0,61,0.00,,,0.00,62,HR-IXPWINDi_r2_v1.2.,2013-02-07 17:48:00,
2013-02-07 12:53:00,46.0,34.9,30.17,NNE,17,0.0,6.0,65,0.00,,,0.00,47,HR-IXPWINDi_r2_v1.2.,2013-02-07 17:53:00,
2013-02-07 12:59:00,45.5,35.9,30.17,NNW,346,2.0,6.0,69,0.00,,,0.00,40,HR-IXPWINDi_r2_v1.2.,2013-02-07 17:59:00,
2013-02-07 13:04:00,45.0,36.1,30.17,North,355,4.0,5.0,71,0.00,,,0.01,40,HR-IXPWINDi_r2_v1.2.,2013-02-07 18:04:00,
2013-02-07 13:09:00,44.4,36.6,30.17,NNW,339,5.0,7.0,74,0.00,,,0.01,44,HR-IXPWINDi_r2_v1.2.,2013-02-07 18:09:00,
2013-02-07 13:14:00,43.7,36.6,30.16,NNW,345,4.0,7.0,76,0.00,,,0.01,49,HR-IXPWINDi_r2_v1.2.,2013-02-07 18:14:00,
2013-02-07 13:19:00,43.2,36.8,30.16,NNW,344,4.0,7.0,78,0.00,,,0.01,54,HR-IXPWINDi_r2_v1.2.,2013-02-07 18:19:00,
2013-02-07 13:24:00,42.9,36.8,30.16,NNW,338,3.0,6.0,79,0.00,,,0.01,63,HR-IXPWINDi_r2_v1.2.,2013-02-07 18:24:00,
2013-02-07 13:30:00,43.0,37.8,30.16,NNW,338,1.0,5.0,82,0.00,,,0.01,65,HR-IXPWINDi_r2_v1.2.,2013-02-07 18:30:00,
2013-02-07 13:35:00,43.2,38.6,30.15,NNW,344,3.0,3.0,84,0.00,,,0.02,63,HR-IXPWINDi_r2_v1.2.,2013-02-07 18:35:00,
2013-02-07 13:40:00,43.2,38.3,30.15,NNW,344,0.0,3.0,83,0.00,,,0.02,62,HR-IXPWINDi_r2_v1.2.,2013-02-07 18:40:00,
2013-02-07 13:45:00,43.3,38.7,30.15,North,355,3.0,4.0,84,0.00,,,0.02,58,HR-IXPWINDi_r2_v1.2.,2013-02-07 18:45:00,
2013-02-07 13:50:00,43.3,39.0,30.15,North,355,0.0,4.0,85,0.00,,,0.03,56,HR-IXPWINDi_r2_v1.2.,2013-02-07 18:50:00,
2013-02-07 13:56:00,43.5,39.5,30.15,North,355,3.0,3.0,86,0.00,,,0.03,51,HR-IXPWINDi_r2_v1.2.,2013-02-07 18:56:00,
2013-02-07 14:01:00,43.8,39.8,30.15,SE,129,0.0,4.0,86,0.00,,,0.03,46,HR-IXPWINDi_r2_v1.2.,2013-02-07 19:01:00,
2013-02-07 14:06:00,43.5,39.8,30.15,North,360,1.0,4.0,87,0.04,,,0.04,40,HR-IXPWINDi_r2_v1.2.,2013-02-07 19:06:00,
2013-02-07 14:11:00,43.4,40.3,30.15,North,11,2.0,4.0,89,0.04,,,0.04,40,HR-IXPWINDi_r2_v1.2.,2013-02-07 19:11:00,
2013-02-07 14:16:00,43.1,40.0,30.15,North,360,2.0,3.0,89,0.07,,,0.05,39,HR-IXPWINDi_r2_v1.2.,2013-02-07 19:16:00,
2013-02-07 14:21:00,42.9,40.1,30.15,NNW,347,1.0,4.0,90,0.06,,,0.05,33,HR-IXPWINDi_r2_v1.2.,2013-02-07 19:21:00,
2013-02-07 14:27:00,42.8,40.3,30.15,NNW,347,1.0,4.0,91,0.05,,,0.06,35,HR-IXPWINDi_r2_v1.2.,2013-02-07 19:27:00,
2013-02-07 14:32:00,42.8,40.3,30.15,NNW,347,1.0,3.0,91,0.05,,,0.06,39,HR-IXPWINDi_r2_v1.2.,2013-02-07 19:32:00,
2013-02-07 14:37:00,42.8,40.6,30.14,NNW,347,0.0,3.0,92,0.08,,,0.07,40,HR-IXPWINDi_r2_v1.2.,2013-02-07 19:37:00,
2013-02-07 14:42:00,42.7,40.5,30.14,NNW,347,0.0,3.0,92,0.07,,,0.08,42,HR-IXPWINDi_r2_v1.2.,2013-02-07 19:42:00,
2013-02-07 14:48:00,42.8,40.6,30.14,NNW,347,0.0,0.0,92,0.07,,,0.08,44,HR-IXPWINDi_r2_v1.2.,2013-02-07 19:48:00,
2013-02-07 14:53:00,43.0,41.1,30.14,NNW,347,0.0,2.0,93,0.08,,,0.09,44,HR-IXPWINDi_r2_v1.2.,2013-02-07 19:53:00,
2013-02-07 14:58:00,43.3,41.1,30.13,NNW,347,0.0,2.0,92,0.06,,,0.09,42,HR-IXPWINDi_r2_v1.2.,2013-02-07 19:58:00,
2013-02-07 15:03:00,43.2,41.0,30.13,NNW,347,0.0,0.0,92,0.06,,,0.10,44,HR-IXPWINDi_r2_v1.2.,2013-02-07 20:03:00,
2013-02-07 15:08:00,42.9,40.7,30.13,NNW,347,0.0,0.0,92,0.10,,,0.11,42,HR-IXPWINDi_r2_v1.2.,2013-02-07 20:08:00,
2013-02-07 15:14:00,43.1,41.2,30.13,NNW,347,0.0,2.0,93,0.08,,,0.12,33,HR-IXPWINDi_r2_v1.2.,2013-02-07 20:14:00,
2013-02-07 15:19:00,43.2,41.3,30.13,NNW,347,2.0,3.0,93,0.10,,,0.13,28,HR-IXPWINDi_r2_v1.2.,2013-02-07 20:19:00,
2013-02-07 15:24:00,43.1,41.2,30.13,NNW,347,0.0,3.0,93,0.10,,,0.13,28,HR-IXPWINDi_r2_v1.2.,2013-02-07 20:24:00,
2013-02-07 15:29:00,43.2,41.3,30.13,South,169,2.0,5.0,93,0.05,,,0.13,26,HR-IXPWINDi_r2_v1.2.,2013-02-07 20:29:00,
2013-02-07 15:34:00,43.1,41.2,30.13,NW,304,2.0,5.0,93,0.05,,,0.14,25,HR-IXPWINDi_r2_v1.2.,2013-02-07 20:34:00,
2013-02-07 15:40:00,43.1,41.4,30.13,WSW,238,2.0,4.0,94,0.05,,,0.14,25,HR-IXPWINDi_r2_v1.2.,2013-02-07 20:40:00,
2013-02-07 15:45:00,43.0,41.3,30.13,WNW,283,3.0,4.0,94,0.07,,,0.15,25,HR-IXPWINDi_r2_v1.2.,2013-02-07 20:45:00,
2013-02-07 15:50:00,42.9,41.2,30.13,WNW,283,3.0,4.0,94,0.08,,,0.16,18,HR-IXPWINDi_r2_v1.2.,2013-02-07 20:50:00,
2013-02-07 15:55:00,42.9,41.2,30.13,WNW,283,0.0,3.0,94,0.08,,,0.17,18,HR-IXPWINDi_r2_v1.2.,2013-02-07 20:55:00,
2013-02-07 16:00:00,42.8,41.1,30.12,WSW,251,0.0,3.0,94,0.08,,,0.17,18,HR-IXPWINDi_r2_v1.2.,2013-02-07 21:00:00,
2013-02-07 16:05:00,42.7,41.0,30.12,WSW,243,0.0,3.0,94,0.07,,,0.18,18,HR-IXPWINDi_r2_v1.2.,2013-02-07 21:05:00,
2013-02-07 16:10:00,42.6,40.9,30.12,WSW,243,0.0,3.0,94,0.09,,,0.19,19,HR-IXPWINDi_r2_v1.2.,2013-02-07 21:10:00,
2013-02-07 16:16:00,42.7,41.0,30.11,WSW,243,0.0,1.0,94,0.09,,,0.19,21,HR-IXPWINDi_r2_v1.2.,2013-02-07 21:16:00,
2013-02-07 16:21:00,42.5,40.8,30.11,WSW,250,2.0,3.0,94,0.05,,,0.19,19,HR-IXPWINDi_r2_v1.2.,2013-02-07 21:21:00,
2013-02-07 16:26:00,42.6,40.9,30.12,WSW,250,0.0,3.0,94,0.04,,,0.19,18,HR-IXPWINDi_r2_v1.2.,2013-02-07 21:26:00,
2013-02-07 16:31:00,42.4,40.7,30.11,WSW,250,0.0,3.0,94,0.00,,,0.20,16,HR-IXPWINDi_r2_v1.2.,2013-02-07 21:31:00,
2013-02-07 16:36:00,42.2,40.5,30.11,SSW,203,2.0,4.0,94,0.00,,,0.20,18,HR-IXPWINDi_r2_v1.2.,2013-02-07 21:36:00,
2013-02-07 16:42:00,42.0,40.3,30.11,SSW,203,0.0,4.0,94,0.00,,,0.20,18,HR-IXPWINDi_r2_v1.2.,2013-02-07 21:42:00,
2013-02-07 16:47:00,41.8,40.1,30.11,SSW,198,4.0,4.0,94,0.00,,,0.21,14,HR-IXPWINDi_r2_v1.2.,2013-02-07 21:47:00,
2013-02-07 16:52:00,41.7,40.0,30.11,SSW,198,1.0,4.0,94,0.00,,,0.21,11,HR-IXPWINDi_r2_v1.2.,2013-02-07 21:52:00,
2013-02-07 16:57:00,41.7,40.0,30.11,SSW,198,0.0,4.0,94,0.00,,,0.21,11,HR-IXPWINDi_r2_v1.2.,2013-02-07 21:57:00,
2013-02-07 17:02:00,41.8,40.4,30.11,SSW,198,0.0,2.0,95,0.00,,,0.21,11,HR-IXPWINDi_r2_v1.2.,2013-02-07 22:02:00,
2013-02-07 17:08:00,41.5,39.9,30.10,SSW,198,0.0,5.0,94,0.00,,,0.22,9,HR-IXPWINDi_r2_v1.2.,2013-02-07 22:08:00,
2013-02-07 17:13:00,41.2,39.8,30.10,SSW,198,0.0,5.0,95,0.09,,,0.23,9,HR-IXPWINDi_r2_v1.2.,2013-02-07 22:13:00,
2013-02-07 17:18:00,41.3,39.9,30.10,SSW,198,0.0,3.0,95,0.10,,,0.24,7,HR-IXPWINDi_r2_v1.2.,2013-02-07 22:18:00,
2013-02-07 17:23:00,41.3,39.9,30.11,SSW,198,0.0,2.0,95,0.09,,,0.24,5,HR-IXPWINDi_r2_v1.2.,2013-02-07 22:23:00,
2013-02-07 17:28:00,41.0,39.6,30.11,SSW,198,0.0,2.0,95,0.09,,,0.25,5,HR-IXPWINDi_r2_v1.2.,2013-02-07 22:28:00,
2013-02-07 17:33:00,40.7,39.3,30.10,SSW,198,0.0,4.0,95,0.06,,,0.25,5,HR-IXPWINDi_r2_v1.2.,2013-02-07 22:33:00,
2013-02-07 17:39:00,40.7,39.3,30.10,SSW,198,1.0,4.0,95,0.05,,,0.26,0,HR-IXPWINDi_r2_v1.2.,2013-02-07 22:39:00,
2013-02-07 17:44:00,40.5,39.1,30.10,SSW,208,0.0,6.0,95,0.08,,,0.27,0,HR-IXPWINDi_r2_v1.2.,2013-02-07 22:44:00,
2013-02-07 17:49:00,40.4,39.0,30.10,SSW,209,0.0,6.0,95,0.08,,,0.27,0,HR-IXPWINDi_r2_v1.2.,2013-02-07 22:49:00,
2013-02-07 17:54:00,40.4,39.0,30.10,SSW,209,0.0,4.0,95,0.05,,,0.27,0,HR-IXPWINDi_r2_v1.2.,2013-02-07 22:54:00,
2013-02-07 18:00:00,40.3,38.9,30.10,SSW,209,0.0,4.0,95,0.00,,,0.27,0,HR-IXPWINDi_r2_v1.2.,2013-02-07 23:00:00,
2013-02-07 18:05:00,40.4,39.0,30.10,SSW,209,0.0,3.0,95,0.00,,,0.28,0,HR-IXPWINDi_r2_v1.2.,2013-02-07 23:05:00,
2013-02-07 18:10:00,40.3,38.9,30.10,SSW,209,0.0,2.0,95,0.00,,,0.28,0,HR-IXPWINDi_r2_v1.2.,2013-02-07 23:10:00,
2013-02-07 18:15:00,40.1,39.0,30.10,SSW,209,0.0,3.0,96,0.05,,,0.29,0,HR-IXPWINDi_r2_v1.2.,2013-02-07 23:15:00,
2013-02-07 18:20:00,40.0,38.9,30.09,SSW,209,3.0,3.0,96,0.05,,,0.29,0,HR-IXPWINDi_r2_v1.2.,2013-02-07 23:20:00,
2013-02-07 18:26:00,39.9,38.8,30.10,SSW,207,4.0,5.0,96,0.04,,,0.29,0,HR-IXPWINDi_r2_v1.2.,2013-02-07 23:26:00,
2013-02-07 18:31:00,39.9,38.8,30.10,SSW,207,4.0,5.0,96,0.00,,,0.30,0,HR-IXPWINDi_r2_v1.2.,2013-02-07 23:31:00,
2013-02-07 18:36:00,39.8,38.7,30.10,SSW,207,0.0,7.0,96,0.00,,,0.30,0,HR-IXPWINDi_r2_v1.2.,2013-02-07 23:36:00,
2013-02-07 18:41:00,39.8,38.7,30.09,SSW,207,2.0,7.0,96,0.07,,,0.31,0,HR-IXPWINDi_r2_v1.2.,2013-02-07 23:41:00,
2013-02-07 18:46:00,39.8,38.7,30.09,SSW,207,1.0,4.0,96,0.07,,,0.31,0,HR-IXPWINDi_r2_v1.2.,2013-02-07 23:46:00,
2013-02-07 18:51:00,39.8,38.7,30.09,SSW,207,3.0,4.0,96,0.07,,,0.32,0,HR-IXPWINDi_r2_v1.2.,2013-02-07 23:51:00,
2013-02-07 18:56:00,39.8,38.7,30.09,SSW,207,0.0,4.0,96,0.09,,,0.33,0,HR-IXPWINDi_r2_v1.2.,2013-02-07 23:56:00,
2013-02-07 19:01:00,39.7,38.6,30.09,SSW,207,0.0,4.0,96,0.07,,,0.33,0,HR-IXPWINDi_r2_v1.2.,2013-02-08 00:01:00,
2013-02-07 19:07:00,39.7,38.6,30.09,SSW,207,0.0,4.0,96,0.05,,,0.34,0,HR-IXPWINDi_r2_v1.2.,2013-02-08 00:07:00,
2013-02-07 19:12:00,39.7,38.6,30.09,SSW,207,0.0,3.0,96,0.05,,,0.34,0,HR-IXPWINDi_r2_v1.2.,2013-02-08 00:12:00,
2013-02-07 19:17:00,39.8,38.7,30.09,SSW,207,2.0,4.0,96,0.08,,,0.35,0,HR-IXPWINDi_r2_v1.2.,2013-02-08 00:17:00,
2013-02-07 19:22:00,39.8,38.7,30.09,SSW,207,1.0,4.0,96,0.07,,,0.35,0,HR-IXPWINDi_r2_v1.2.,2013-02-08 00:22:00,
2013-02-07 19:27:00,39.9,38.8,30.09,SSW,207,0.0,4.0,96,0.06,,,0.36,0,HR-IXPWINDi_r2_v1.2.,2013-02-08 00:27:00,
2013-02-07 19:32:00,40.0,38.9,30.10,SSW,207,0.0,3.0,96,0.07,,,0.37,0,HR-IXPWINDi_r2_v1.2.,2013-02-08 00:32:00,
2013-02-07 19:37:00,39.9,38.8,30.10,SSW,207,0.0,0.0,96,0.07,,,0.37,0,HR-IXPWINDi_r2_v1.2.,2013-02-08 00:37:00,
2013-02-07 19:43:00,40.0,38.9,30.09,SSW,207,0.0,2.0,96,0.06,,,0.37,0,HR-IXPWINDi_r2_v1.2.,2013-02-08 00:43:00,
2013-02-07 19:48:00,40.2,39.1,30.09,SSW,207,0.0,2.0,96,0.04,,,0.37,0,HR-IXPWINDi_r2_v1.2.,2013-02-08 00:48:00,
2013-02-07 19:53:00,40.2,39.1,30.09,SSW,207,0.0,0.0,96,0.04,,,0.38,0,HR-IXPWINDi_r2_v1.2.,2013-02-08 00:53:00,
2013-02-07 19:59:00,40.2,39.1,30.08,SSW,207,0.0,0.0,96,0.04,,,0.38,0,HR-IXPWINDi_r2_v1.2.,2013-02-08 00:59:00,
2013-02-07 20:04:00,40.3,39.2,30.08,SSW,207,0.0,0.0,96,0.04,,,0.39,0,HR-IXPWINDi_r2_v1.2.,2013-02-08 01:04:00,
2013-02-07 20:09:00,40.2,39.1,30.08,SSW,207,0.0,0.0,96,0.04,,,0.39,0,HR-IXPWINDi_r2_v1.2.,2013-02-08 01:09:00,
2013-02-07 20:14:00,40.1,39.0,30.08,SSW,207,0.0,0.0,96,0.04,,,0.39,0,HR-IXPWINDi_r2_v1.2.,2013-02-08 01:14:00,
2013-02-07 20:19:00,40.0,38.9,30.08,SSW,207,0.0,1.0,96,0.04,,,0.39,0,HR-IXPWINDi_r2_v1.2.,2013-02-08 01:19:00,
2013-02-07 20:24:00,40.0,38.9,30.08,SSW,207,0.0,1.0,96,0.00,,,0.39,0,HR-IXPWINDi_r2_v1.2.,2013-02-08 01:24:00,
2013-02-07 20:30:00,40.0,38.9,30.08,SSW,207,1.0,2.0,96,0.00,,,0.39,0,HR-IXPWINDi_r2_v1.2.,2013-02-08 01:30:00,
2013-02-07 20:35:00,39.9,38.8,30.08,SSW,207,0.0,3.0,96,0.00,,,0.39,0,HR-IXPWINDi_r2_v1.2.,2013-02-08 01:35:00,
2013-02-07 20:40:00,39.9,38.8,30.08,SSW,207,4.0,4.0,96,0.00,,,0.39,0,HR-IXPWINDi_r2_v1.2.,2013-02-08 01:40:00,
2013-02-07 20:45:00,39.9,38.8,30.08,SSW,207,1.0,4.0,96,0.00,,,0.39,0,HR-IXPWINDi_r2_v1.2.,2013-02-08 01:45:00,
2013-02-07 20:50:00,39.9,38.8,30.08,SSW,207,0.0,4.0,96,0.00,,,0.39,0,HR-IXPWINDi_r2_v1.2.,2013-02-08 01:50:00,
2013-02-07 20:55:00,39.9,38.8,30.07,SSW,207,0.0,3.0,96,0.00,,,0.39,0,HR-IXPWINDi_r2_v1.2.,2013-02-08 01:55:00,
2013-02-07 21:00:00,39.9,38.8,30.07,SSW,207,0.0,1.0,96,0.00,,,0.39,0,HR-IXPWINDi_r2_v1.2.,2013-02-08 02:00:00,
2013-02-07 21:06:00,40.0,38.9,30.07,SSW,207,0.0,2.0,96,0.00,,,0.39,0,HR-IXPWINDi_r2_v1.2.,2013-02-08 02:06:00,
2013-02-07 21:11:00,40.0,38.9,30.07,SSW,207,0.0,2.0,96,0.00,,,0.39,0,HR-IXPWINDi_r2_v1.2.,2013-02-08 02:11:00,
2013-02-07 21:16:00,40.0,38.9,30.07,SSW,207,0.0,0.0,96,0.00,,,0.39,0,HR-IXPWINDi_r2_v1.2.,2013-02-08 02:16:00,
2013-02-07 21:21:00,39.9,38.8,30.07,SSW,207,2.0,2.0,96,0.00,,,0.39,0,HR-IXPWINDi_r2_v1.2.,2013-02-08 02:21:00,
2013-02-07 21:26:00,40.0,38.9,30.07,SSW,207,1.0,2.0,96,0.00,,,0.39,0,HR-IXPWINDi_r2_v1.2.,2013-02-08 02:26:00,
2013-02-07 21:31:00,40.0,38.9,30.07,SSW,207,0.0,3.0,96,0.00,,,0.39,0,HR-IXPWINDi_r2_v1.2.,2013-02-08 02:31:00,
2013-02-07 21:36:00,39.9,38.8,30.07,SSW,207,1.0,3.0,96,0.00,,,0.39,0,HR-IXPWINDi_r2_v1.2.,2013-02-08 02:36:00,
2013-02-07 21:41:00,40.1,39.0,30.07,SSW,207,0.0,3.0,96,0.00,,,0.39,0,HR-IXPWINDi_r2_v1.2.,2013-02-08 02:41:00,
2013-02-07 21:47:00,40.1,39.0,30.07,SSW,207,0.0,1.0,96,0.00,,,0.39,0,HR-IXPWINDi_r2_v1.2.,2013-02-08 02:47:00,
2013-02-07 21:52:00,40.0,38.9,30.06,SSW,207,0.0,0.0,96,0.00,,,0.39,0,HR-IXPWINDi_r2_v1.2.,2013-02-08 02:52:00,
2013-02-07 21:57:00,40.1,39.0,30.06,SSW,207,0.0,0.0,96,0.00,,,0.39,0,HR-IXPWINDi_r2_v1.2.,2013-02-08 02:57:00,
2013-02-07 22:02:00,40.1,39.0,30.06,SSW,207,1.0,2.0,96,0.00,,,0.39,0,HR-IXPWINDi_r2_v1.2.,2013-02-08 03:02:00,
2013-02-07 22:08:00,40.1,39.0,30.06,SSW,207,0.0,2.0,96,0.00,,,0.39,0,HR-IXPWINDi_r2_v1.2.,2013-02-08 03:08:00,
2013-02-07 22:13:00,40.1,39.0,30.06,SSW,207,0.0,3.0,96,0.00,,,0.39,0,HR-IXPWINDi_r2_v1.2.,2013-02-08 03:13:00,
2013-02-07 22:18:00,40.2,39.1,30.06,SSW,207,0.0,3.0,96,0.00,,,0.39,0,HR-IXPWINDi_r2_v1.2.,2013-02-08 03:18:00,
2013-02-07 22:23:00,40.2,39.1,30.06,SSW,207,0.0,2.0,96,0.00,,,0.39,0,HR-IXPWINDi_r2_v1.2.,2013-02-08 03:23:00,
2013-02-07 22:28:00,40.1,39.0,30.05,SSW,207,0.0,2.0,96,0.00,,,0.39,0,HR-IXPWINDi_r2_v1.2.,2013-02-08 03:28:00,
2013-02-07 22:33:00,40.0,38.9,30.05,SSW,207,0.0,0.0,96,0.00,,,0.39,0,HR-IXPWINDi_r2_v1.2.,2013-02-08 03:33:00,
2013-02-07 22:39:00,40.0,38.9,30.05,SSW,207,0.0,0.0,96,0.00,,,0.39,0,HR-IXPWINDi_r2_v1.2.,2013-02-08 03:39:00,
2013-02-07 22:44:00,40.0,38.9,30.05,SSW,207,0.0,0.0,96,0.00,,,0.39,0,HR-IXPWINDi_r2_v1.2.,2013-02-08 03:44:00,
2013-02-07 22:49:00,40.0,39.2,30.05,SSW,207,0.0,0.0,97,0.00,,,0.39,0,HR-IXPWINDi_r2_v1.2.,2013-02-08 03:49:00,
2013-02-07 22:54:00,40.0,39.2,30.04,SSW,207,0.0,0.0,97,0.00,,,0.39,0,HR-IXPWINDi_r2_v1.2.,2013-02-08 03:54:00,
2013-02-07 22:59:00,40.0,39.2,30.04,SSW,207,1.0,2.0,97,0.00,,,0.39,0,HR-IXPWINDi_r2_v1.2.,2013-02-08 03:59:00,
2013-02-07 23:04:00,39.8,38.7,30.04,SSW,207,0.0,2.0,96,0.00,,,0.39,0,HR-IXPWINDi_r2_v1.2.,2013-02-08 04:04:00,
2013-02-07 23:10:00,40.2,39.4,30.04,SSW,207,0.0,1.0,97,0.00,,,0.39,0,HR-IXPWINDi_r2_v1.2.,2013-02-08 04:10:00,
2013-02-07 23:15:00,40.1,39.3,30.04,SSW,207,0.0,0.0,97,0.00,,,0.39,0,HR-IXPWINDi_r2_v1.2.,2013-02-08 04:15:00,
2013-02-07 23:20:00,39.9,39.1,30.04,SSW,207,0.0,0.0,97,0.00,,,0.39,0,HR-IXPWINDi_r2_v1.2.,2013-02-08 04:20:00,
2013-02-07 23:25:00,39.9,38.8,30.04,SSW,207,0.0,0.0,96,0.00,,,0.39,0,HR-IXPWINDi_r2_v1.2.,2013-02-08 04:25:00,
2013-02-07 23:30:00,39.8,38.7,30.04,SSW,207,0.0,0.0,96,0.00,,,0.39,0,HR-IXPWINDi_r2_v1.2.,2013-02-08 04:30:00,
2013-02-07 23:35:00,39.7,38.6,30.04,SSW,207,0.0,0.0,96,0.00,,,0.39,0,HR-IXPWINDi_r2_v1.2.,2013-02-08 04:35:00,
2013-02-07 23:40:00,39.8,38.7,30.03,SSW,207,0.0,0.0,96,0.00,,,0.39,0,HR-IXPWINDi_r2_v1.2.,2013-02-08 04:40:00,
2013-02-07 23:46:00,39.7,38.9,30.03,SSW,207,0.0,0.0,97,0.00,,,0.39,0,HR-IXPWINDi_r2_v1.2.,2013-02-08 04:46:00,
2013-02-07 23:51:00,39.7,38.9,30.03,SSW,207,0.0,0.0,97,0.00,,,0.39,0,HR-IXPWINDi_r2_v1.2.,2013-02-08 04:51:00,
2013-02-07 23:56:00,39.8,39.0,30.03,SSW,207,0.0,0.0,97,0.00,,,0.39,0,HR-IXPWINDi_r2_v1.2.,2013-02-08 04:56:00,